Time;durP1;ratioP1;P1;durP2;ratioP2;P2;SDS_P1;SDS_P2;PMS_P1;PMS_P2;Temp;Humidity;BMP_temperature;BMP_pressure;BME280_temperature;BME280_humidity;BME280_pressure;Samples;Min_cycle;Max_cycle;Signal;HPM_P1;HPM_P2
2022/03/02 00:01:25;;;;;;;7.40;4.20;;;;;;;-1.00;79.83;99707.35;105203;1271;74836;-30
2022/03/02 00:04:47;;;;;;;10.60;4.20;;;;;;;-0.56;78.45;99710.90;105239;1271;74338;-30
2022/03/02 00:07:17;;;;;;;10.10;4.80;;;;;;;-0.47;77.54;99714.09;105125;1272;61083;-30
2022/03/02 00:09:46;;;;;;;10.40;4.10;;;;;;;-0.60;78.20;99711.87;104909;1271;61042;-29
2022/03/02 00:12:15;;;;;;;4.70;2.60;;;;;;;-0.90;79.37;99709.52;104976;1271;73827;-31
2022/03/02 00:14:44;;;;;;;11.30;3.90;;;;;;;-1.03;79.77;99703.67;104880;1271;76395;-31
2022/03/02 00:17:15;;;;;;;9.70;5.00;;;;;;;-1.16;80.58;99699.89;104718;1274;72542;-31
2022/03/02 00:19:48;;;;;;;8.00;4.50;;;;;;;-0.61;78.73;99697.88;105056;1271;61164;-31
2022/03/02 00:22:22;;;;;;;8.70;4.60;;;;;;;-0.37;77.02;99698.66;104789;1272;61054;-29
2022/03/02 00:25:16;;;;;;;8.10;4.90;;;;;;;-0.39;77.54;99695.47;104833;1271;74634;-31
2022/03/02 00:27:46;;;;;;;9.90;5.80;;;;;;;-0.61;77.91;99691.58;105105;1274;75928;-31
2022/03/02 00:30:14;;;;;;;12.00;6.20;;;;;;;-0.84;78.70;99690.95;105161;1271;72868;-31
2022/03/02 00:32:43;;;;;;;18.60;6.90;;;;;;;-0.95;79.28;99693.77;104943;1270;61153;-31
2022/03/02 00:35:15;;;;;;;9.60;4.80;;;;;;;-0.80;79.11;99689.14;104833;1271;62048;-31
2022/03/02 00:37:43;;;;;;;16.90;9.40;;;;;;;-0.31;76.82;99694.05;104899;1271;74045;-30
2022/03/02 00:40:13;;;;;;;16.50;8.10;;;;;;;-0.59;77.40;99689.84;104967;1271;76127;-30
2022/03/02 00:42:43;;;;;;;11.30;5.90;;;;;;;-0.66;77.87;99687.46;104919;1271;74251;-30
2022/03/02 00:45:26;;;;;;;13.30;6.40;;;;;;;-1.03;79.20;99684.06;105176;1271;61073;-30
2022/03/02 00:48:20;;;;;;;13.10;6.70;;;;;;;-1.00;79.56;99676.85;105066;1271;61122;-30
2022/03/02 00:51:15;;;;;;;10.10;4.90;;;;;;;-1.03;79.81;99676.39;104855;1271;74178;-30
2022/03/02 00:53:44;;;;;;;8.50;4.10;;;;;;;-0.58;78.29;99672.58;105106;1271;75182;-30
2022/03/02 00:56:52;;;;;;;8.00;3.80;;;;;;;-0.24;76.65;99671.71;105071;1271;74851;-30
2022/03/02 00:59:22;;;;;;;8.50;4.60;;;;;;;-0.45;77.41;99671.39;105116;1271;61035;-30
2022/03/02 01:02:20;;;;;;;8.80;4.30;;;;;;;-0.56;77.67;99668.42;105271;1271;61176;-30
2022/03/02 01:05:40;;;;;;;7.90;4.30;;;;;;;-0.93;79.02;99664.58;105207;1271;74532;-30
2022/03/02 01:08:09;;;;;;;7.10;4.60;;;;;;;-1.01;79.86;99662.22;105174;1271;76032;-30
2022/03/02 01:11:03;;;;;;;14.00;5.10;;;;;;;-0.68;78.77;99654.58;104984;1271;74402;-30
2022/03/02 01:13:32;;;;;;;9.60;4.90;;;;;;;-0.47;77.46;99653.68;104961;1271;61137;-30
2022/03/02 01:20:32;;;;;;;8.10;4.40;;;;;;;-1.10;79.70;99646.92;104567;1277;74172;-30
2022/03/02 01:23:53;;;;;;;10.20;4.70;;;;;;;-1.06;79.86;99643.56;104690;1274;74798;-30
2022/03/02 01:27:12;;;;;;;7.80;4.00;;;;;;;-1.10;79.79;99638.90;104970;1274;72769;-30
2022/03/02 01:37:39;;;;;;;9.50;4.40;;;;;;;-1.14;79.88;99634.05;104249;1281;74047;-30
2022/03/02 01:40:09;;;;;;;7.30;3.20;;;;;;;-1.16;80.40;99630.02;104155;1281;75014;-30
2022/03/02 01:43:28;;;;;;;11.30;4.40;;;;;;;-1.26;80.63;99625.47;104037;1280;74178;-30
2022/03/02 01:45:57;;;;;;;10.90;5.60;;;;;;;-0.87;79.49;99625.71;104360;1281;61273;-30
2022/03/02 01:48:25;;;;;;;7.90;3.80;;;;;;;-0.44;77.76;99624.95;104467;1281;61033;-30
2022/03/02 01:50:54;;;;;;;11.90;5.50;;;;;;;-0.25;76.89;99626.50;104533;1280;75382;-30
2022/03/02 01:53:23;;;;;;;10.50;6.30;;;;;;;-0.70;78.27;99619.52;104578;1277;76035;-31
2022/03/02 01:55:51;;;;;;;24.30;11.50;;;;;;;-0.77;78.60;99617.64;104669;1277;74500;-30
2022/03/02 01:58:28;;;;;;;24.10;11.50;;;;;;;-0.98;79.40;99612.19;104674;1277;60987;-30
2022/03/02 02:01:59;;;;;;;24.60;10.50;;;;;;;-1.17;80.52;99607.20;104667;1277;61851;-31
2022/03/02 02:04:29;;;;;;;11.00;6.50;;;;;;;-0.83;78.85;99608.77;104724;1276;74524;-31
2022/03/02 02:07:02;;;;;;;17.70;9.30;;;;;;;-0.84;79.15;99605.02;104725;1277;76411;-31
2022/03/02 02:09:31;;;;;;;;;;;;;;;-0.76;78.85;99609.75;104913;1274;71591;-31
2022/03/02 02:12:52;;;;;;;11.50;6.10;;;;;;;-1.05;79.85;99602.81;104813;1272;61005;-30
2022/03/02 02:20:15;;;;;;;13.50;6.30;;;;;;;-0.80;79.63;99601.16;105178;1271;73939;-31
2022/03/02 02:22:46;;;;;;;9.50;5.60;;;;;;;-0.62;78.60;99602.59;105198;1271;76060;-31
2022/03/02 02:25:14;;;;;;;9.30;5.40;;;;;;;-0.88;79.53;99596.59;105068;1271;73532;-31
2022/03/02 02:28:37;;;;;;;11.90;6.10;;;;;;;-1.08;80.07;99595.23;105192;1271;61107;-31
2022/03/02 02:31:07;;;;;;;15.40;6.30;;;;;;;-1.29;81.46;99591.12;105181;1271;61029;-30
2022/03/02 02:34:02;;;;;;;9.40;4.50;;;;;;;-1.19;81.33;99589.17;105263;1271;75520;-30
2022/03/02 02:36:31;;;;;;;11.20;5.90;;;;;;;-0.80;79.74;99589.05;105233;1271;74827;-30
2022/03/02 02:39:05;;;;;;;11.20;6.20;;;;;;;-0.88;79.94;99590.95;105135;1271;73363;-30
2022/03/02 02:41:33;;;;;;;13.90;5.20;;;;;;;-0.85;79.91;99588.49;105141;1272;61038;-30
2022/03/02 02:44:03;;;;;;;10.00;5.30;;;;;;;-1.03;80.36;99586.08;105025;1271;61089;-30
2022/03/02 02:46:31;;;;;;;10.10;5.50;;;;;;;-1.17;81.09;99581.81;104723;1271;74012;-30
2022/03/02 02:49:08;;;;;;;10.40;5.80;;;;;;;-1.26;81.70;99578.10;104798;1274;74996;-30
2022/03/02 02:51:37;;;;;;;13.60;6.90;;;;;;;-1.05;80.91;99576.40;104984;1271;71344;-30
2022/03/02 02:54:34;;;;;;;14.10;6.00;;;;;;;-0.85;80.40;99575.38;104807;1272;61356;-30
2022/03/02 02:57:04;;;;;;;10.90;5.60;;;;;;;-0.60;79.46;99573.52;104943;1271;61126;-30
2022/03/02 03:00:51;;;;;;;8.90;5.30;;;;;;;-0.99;80.74;99562.27;104828;1274;75440;-30
2022/03/02 03:03:20;;;;;;;13.10;6.30;;;;;;;-1.24;82.01;99555.22;104688;1274;74205;-30
2022/03/02 03:05:52;;;;;;;12.10;6.00;;;;;;;-1.14;81.76;99552.27;104624;1274;71607;-30
2022/03/02 03:09:20;;;;;;;12.90;7.40;;;;;;;-0.75;80.16;99549.39;104549;1277;61189;-30
2022/03/02 03:11:52;;;;;;;12.80;6.70;;;;;;;-0.69;79.98;99546.99;104630;1275;60981;-30
2022/03/02 03:14:22;;;;;;;13.20;7.20;;;;;;;-0.98;80.78;99544.17;104673;1274;77170;-30
2022/03/02 03:16:51;;;;;;;10.70;6.40;;;;;;;-1.18;81.53;99537.52;104776;1274;75964;-30
2022/03/02 03:19:20;;;;;;;19.50;8.60;;;;;;;-1.37;82.63;99533.90;104763;1277;74279;-30
2022/03/02 03:21:48;;;;;;;8.20;5.10;;;;;;;-1.43;82.80;99527.77;104920;1274;63340;-30
2022/03/02 03:25:07;;;;;;;10.10;4.90;;;;;;;-1.08;81.66;99522.29;104973;1274;61525;-30
2022/03/02 03:27:37;;;;;;;11.60;5.80;;;;;;;-0.92;80.60;99518.63;104695;1277;73395;-30
2022/03/02 03:30:08;;;;;;;14.20;7.80;;;;;;;-1.17;81.26;99529.48;104879;1274;75957;-30
2022/03/02 03:32:36;;;;;;;18.80;9.40;;;;;;;-1.41;82.25;99529.91;104927;1274;71452;-30
2022/03/02 03:35:07;;;;;;;25.10;10.50;;;;;;;-1.32;82.27;99526.81;104950;1274;61249;-30
2022/03/02 03:37:36;;;;;;;20.50;10.30;;;;;;;-1.41;82.35;99522.94;104542;1271;61121;-29
2022/03/02 03:40:16;;;;;;;27.30;15.10;;;;;;;-1.10;81.20;99524.20;104955;1271;75863;-29
2022/03/02 03:42:45;;;;;;;16.40;8.30;;;;;;;-0.99;80.48;99521.20;105185;1271;74501;-31
2022/03/02 03:45:39;;;;;;;15.10;8.70;;;;;;;-1.09;81.00;99519.23;105174;1271;73525;-30
2022/03/02 03:48:09;;;;;;;14.90;7.20;;;;;;;-1.42;82.12;99516.33;105125;1271;61028;-30
2022/03/02 03:51:29;;;;;;;17.10;8.10;;;;;;;-1.50;82.95;99515.31;105198;1271;61520;-29
2022/03/02 03:54:10;;;;;;;10.70;4.80;;;;;;;-1.19;81.58;99510.96;104870;1271;75018;-29
2022/03/02 03:56:38;;;;;;;12.30;7.20;;;;;;;-0.99;80.57;99512.48;104999;1271;76216;-30
2022/03/02 03:59:08;;;;;;;15.20;7.90;;;;;;;-1.10;80.76;99505.46;104840;1271;73300;-30
2022/03/02 04:09:56;;;;;;;17.40;7.30;;;;;;;-1.14;80.70;99504.54;105236;1270;73063;-32
2022/03/02 04:12:45;;;;;;;10.00;5.40;;;;;;;-1.26;80.88;99506.56;105153;1271;76222;-37
2022/03/02 04:15:14;;;;;;;15.50;7.00;;;;;;;-1.44;81.77;99512.09;105183;1271;73437;-32
2022/03/02 04:18:34;;;;;;;13.90;6.50;;;;;;;-1.56;82.63;99512.57;104926;1271;61071;-32
2022/03/02 04:21:03;;;;;;;14.30;7.90;;;;;;;-1.63;82.90;99516.31;104972;1271;61086;-31
2022/03/02 04:23:32;;;;;;;17.10;8.40;;;;;;;-1.27;81.63;99522.09;105205;1271;71592;-36
2022/03/02 04:26:01;;;;;;;15.30;7.90;;;;;;;-1.28;81.59;99521.77;105132;1273;74470;-35
2022/03/02 04:29:10;;;;;;;17.00;8.40;;;;;;;-1.27;81.45;99499.23;105183;1271;71279;-33
2022/03/02 04:31:44;;;;;;;16.70;8.40;;;;;;;-1.46;82.54;99487.29;105031;1271;61036;-32
2022/03/02 04:34:15;;;;;;;16.80;10.00;;;;;;;-1.38;82.37;99486.94;105116;1269;61109;-31
2022/03/02 04:36:44;;;;;;;17.90;9.70;;;;;;;-1.31;81.84;99496.45;104814;1271;73924;-31
2022/03/02 04:39:26;;;;;;;14.20;8.70;;;;;;;-1.27;81.19;99495.85;104884;1271;73716;-31
2022/03/02 04:41:55;;;;;;;17.70;10.70;;;;;;;-1.23;81.24;99493.70;104942;1271;73201;-30
2022/03/02 04:45:13;;;;;;;14.50;8.00;;;;;;;-1.61;82.90;99509.63;105074;1271;61151;-30
2022/03/02 04:47:52;;;;;;;23.10;11.20;;;;;;;-1.82;83.67;99506.89;104841;1274;61146;-30
2022/03/02 04:50:27;;;;;;;21.00;9.70;;;;;;;-1.40;82.35;99508.27;104878;1274;75522;-30
2022/03/02 04:52:57;;;;;;;23.80;10.70;;;;;;;-0.99;80.63;99512.16;105176;1271;72818;-30
2022/03/02 04:55:32;;;;;;;15.20;8.80;;;;;;;-1.01;80.15;99513.74;104956;1271;74199;-30
2022/03/02 05:01:50;;;;;;;114.60;49.80;;;;;;;-1.65;82.46;99510.41;105144;1274;61124;-30
2022/03/02 05:04:18;;;;;;;12.70;7.50;;;;;;;-1.60;82.49;99509.09;105071;1271;73372;-30
2022/03/02 05:06:47;;;;;;;14.10;7.20;;;;;;;-1.22;80.71;99504.74;105181;1271;74502;-29
2022/03/02 05:09:16;;;;;;;11.50;6.60;;;;;;;-1.30;80.88;99506.81;104974;1271;73217;-29
2022/03/02 05:11:46;;;;;;;10.60;6.20;;;;;;;-1.57;81.40;99504.59;104938;1271;61306;-30
2022/03/02 05:14:15;;;;;;;11.90;8.50;;;;;;;-1.76;82.57;99500.96;105179;1270;61027;-29
2022/03/02 05:16:44;;;;;;;11.90;5.50;;;;;;;-1.61;82.16;99498.58;104884;1271;73404;-30
2022/03/02 05:19:13;;;;;;;15.00;6.90;;;;;;;-1.55;81.72;99496.19;105009;1271;74991;-29
2022/03/02 05:21:43;;;;;;;14.60;8.30;;;;;;;-1.17;80.12;99496.45;104960;1271;74408;-30
2022/03/02 05:24:15;;;;;;;34.10;15.90;;;;;;;-1.16;79.73;99495.55;104789;1274;61256;-29
2022/03/02 05:26:43;;;;;;;22.90;10.50;;;;;;;-1.31;80.17;99494.06;104973;1271;60958;-30
2022/03/02 05:31:02;;;;;;;11.90;7.30;;;;;;;-1.54;81.38;99486.45;101740;1310;601411;-32
2022/03/02 05:33:31;;;;;;;20.40;9.90;;;;;;;-1.78;82.42;99483.81;104475;1281;61151;-29
2022/03/02 05:36:04;;;;;;;26.80;15.50;;;;;;;-1.40;81.09;99486.46;104489;1281;61071;-29
2022/03/02 05:38:39;;;;;;;16.20;7.60;;;;;;;-1.40;80.24;99483.91;104475;1281;74595;-30
2022/03/02 05:41:12;;;;;;;18.70;10.60;;;;;;;-1.25;80.09;99485.23;104583;1280;76165;-29
2022/03/02 05:43:56;;;;;;;16.90;9.90;;;;;;;-1.55;80.93;99479.34;96821;1280;10374029;-29
2022/03/02 05:46:35;;;;;;;31.20;16.70;;;;;;;-1.72;81.98;99484.68;104640;1278;61010;-29
2022/03/02 05:49:04;;;;;;;16.20;8.70;;;;;;;-1.84;82.52;99484.98;104420;1277;72173;-30
2022/03/02 05:51:34;;;;;;;9.50;6.10;;;;;;;-1.60;81.53;99482.01;104667;1278;74585;-30
2022/03/02 05:54:08;;;;;;;11.60;7.40;;;;;;;-1.51;80.91;99477.55;104263;1280;74715;-30
2022/03/02 05:56:38;;;;;;;13.60;8.60;;;;;;;-1.18;79.80;99479.93;104264;1281;61198;-30
2022/03/02 05:59:09;;;;;;;22.80;12.60;;;;;;;-1.42;80.32;99480.20;104301;1277;61157;-30
2022/03/02 06:01:39;;;;;;;10.20;7.20;;;;;;;-1.62;81.48;99481.72;104249;1278;73264;-30
2022/03/02 06:05:10;;;;;;;9.10;5.30;;;;;;;-1.88;82.22;99476.55;104370;1283;73543;-30
2022/03/02 06:07:43;;;;;;;12.90;6.90;;;;;;;-1.71;81.90;99472.41;104422;1280;72184;-30
2022/03/02 06:10:15;;;;;;;;;;;;;;;-1.16;79.81;99471.71;104477;1279;61182;-30
2022/03/02 06:12:47;;;;;;;;;;;;;;;-1.07;79.03;99465.49;104179;1280;61249;-30
2022/03/02 06:15:24;;;;;;;16.00;7.70;;;;;;;-1.20;79.45;99461.23;104145;1280;74009;-31
2022/03/02 06:18:01;;;;;;;18.50;11.00;;;;;;;-1.43;80.21;99460.84;104150;1280;72281;-32
2022/03/02 06:20:31;;;;;;;17.90;9.40;;;;;;;-1.57;80.87;99462.02;104193;1280;73247;-32
2022/03/02 06:23:03;;;;;;;13.80;7.90;;;;;;;-1.60;81.48;99463.79;104104;1280;61103;-31
2022/03/02 06:26:04;;;;;;;16.00;8.50;;;;;;;-1.00;79.35;99459.70;104169;1280;61049;-30
2022/03/02 06:28:34;;;;;;;13.50;7.90;;;;;;;-1.09;79.37;99458.92;104258;1280;74511;-32
2022/03/02 06:31:05;;;;;;;15.50;8.70;;;;;;;-1.02;79.55;99463.15;104290;1280;77166;-31
2022/03/02 06:34:39;;;;;;;21.00;11.00;;;;;;;-1.23;79.98;99456.21;104085;1280;72844;-30
2022/03/02 06:37:34;;;;;;;13.00;7.80;;;;;;;-1.62;81.52;99448.86;104624;1277;61054;-30
2022/03/02 06:40:12;;;;;;;11.40;6.30;;;;;;;-1.41;80.76;99449.52;104655;1277;61103;-31
2022/03/02 06:43:07;;;;;;;11.90;7.00;;;;;;;-1.07;79.79;99451.02;104355;1277;74583;-30
2022/03/02 06:46:05;;;;;;;18.20;9.00;;;;;;;-1.10;80.00;99445.65;104661;1277;76050;-31
2022/03/02 06:49:06;;;;;;;12.70;8.40;;;;;;;-1.42;80.60;99436.60;104617;1277;73011;-31
2022/03/02 06:51:44;;;;;;;16.60;7.60;;;;;;;-1.64;81.84;99435.80;104707;1277;61133;-30
2022/03/02 06:54:51;;;;;;;14.00;7.90;;;;;;;-1.30;81.16;99441.57;104470;1277;61958;-30
2022/03/02 06:57:54;;;;;;;10.40;6.50;;;;;;;-1.01;79.37;99437.55;104610;1277;74861;-32
2022/03/02 07:00:53;;;;;;;8.20;5.10;;;;;;;-1.18;79.72;99432.05;104592;1277;74853;-30
2022/03/02 07:03:47;;;;;;;13.20;7.50;;;;;;;-1.52;81.01;99426.64;104304;1280;71704;-29
2022/03/02 07:06:30;;;;;;;12.60;7.10;;;;;;;-1.70;82.09;99425.74;104086;1280;61215;-30
2022/03/02 07:09:03;;;;;;;17.90;9.20;;;;;;;-1.63;82.03;99422.68;104134;1280;61096;-30
2022/03/02 07:12:21;;;;;;;18.20;8.80;;;;;;;-1.12;80.72;99425.42;104215;1280;74752;-30
2022/03/02 07:15:04;;;;;;;10.10;6.40;;;;;;;-1.00;79.06;99422.70;104162;1280;77293;-30
2022/03/02 07:17:53;;;;;;;14.00;8.00;;;;;;;-1.08;79.91;99419.70;103420;1289;73889;-31
2022/03/02 07:20:56;;;;;;;15.00;8.50;;;;;;;-1.41;80.73;99414.77;103405;1289;61766;-32
2022/03/02 07:23:30;;;;;;;17.70;9.00;;;;;;;-1.48;82.13;99408.98;103478;1288;61217;-29
2022/03/02 07:26:05;;;;;;;16.50;8.60;;;;;;;-1.29;81.28;99398.45;103058;1288;73709;-31
2022/03/02 07:28:52;;;;;;;12.80;7.70;;;;;;;-1.03;79.77;99392.27;103291;1287;74626;-31
2022/03/02 07:31:22;;;;;;;15.60;7.60;;;;;;;-0.89;79.15;99388.83;103214;1287;70853;-29
2022/03/02 07:34:33;;;;;;;17.80;9.10;;;;;;;-1.07;79.55;99395.96;103566;1283;61247;-30
2022/03/02 07:37:26;;;;;;;15.10;8.30;;;;;;;-1.18;80.56;99392.20;103827;1283;61339;-31
2022/03/02 07:40:18;;;;;;;15.00;6.50;;;;;;;-1.57;81.11;99393.21;103802;1283;73602;-29
2022/03/02 07:42:51;;;;;;;14.50;8.20;;;;;;;-1.23;80.94;99394.88;104160;1283;74253;-30
2022/03/02 07:45:23;;;;;;;10.30;7.40;;;;;;;-0.84;79.07;99392.93;103713;1283;73716;-31
2022/03/02 07:48:12;;;;;;;12.70;7.20;;;;;;;-1.12;80.11;99394.57;103808;1283;61172;-31
2022/03/02 07:50:51;;;;;;;9.60;5.60;;;;;;;-0.86;79.90;99394.88;104156;1283;61043;-31
2022/03/02 07:53:25;;;;;;;13.70;7.40;;;;;;;-1.03;80.32;99394.67;103702;1283;73312;-31
2022/03/02 07:56:40;;;;;;;12.10;7.00;;;;;;;-1.10;80.62;99388.55;103716;1282;74929;-31
2022/03/02 07:59:24;;;;;;;10.70;6.60;;;;;;;-0.80;79.33;99386.68;103817;1283;71632;-30
2022/03/02 08:02:13;;;;;;;16.90;7.70;;;;;;;-0.72;78.87;99382.03;103996;1277;61102;-30
2022/03/02 08:04:54;;;;;;;12.40;7.00;;;;;;;-0.99;79.71;99379.89;104700;1277;61154;-30
2022/03/02 08:07:36;;;;;;;14.10;7.90;;;;;;;-1.16;80.78;99376.96;104731;1277;73320;-30
2022/03/02 08:10:24;;;;;;;15.30;8.70;;;;;;;-1.11;80.61;99376.84;104749;1276;74744;-30
2022/03/02 08:13:03;;;;;;;16.80;10.30;;;;;;;-1.35;81.35;99376.30;104693;1277;74542;-30
2022/03/02 08:16:11;;;;;;;;;;;;;;;-1.13;80.39;99367.85;104673;1277;61115;-29
2022/03/02 08:18:49;;;;;;;20.30;9.80;;;;;;;-0.79;79.78;99369.42;104570;1275;61091;-30
2022/03/02 08:21:35;;;;;;;17.20;10.50;;;;;;;-0.85;79.71;99367.74;104398;1277;73565;-30
2022/03/02 08:24:27;;;;;;;16.20;7.80;;;;;;;-0.89;79.98;99367.84;104427;1277;75861;-30
2022/03/02 08:27:01;;;;;;;14.00;8.30;;;;;;;-1.14;80.91;99368.39;104651;1277;75443;-30
2022/03/02 08:29:47;;;;;;;12.20;7.40;;;;;;;-1.20;81.10;99361.56;104661;1277;61278;-30
2022/03/02 08:32:37;;;;;;;18.50;7.00;;;;;;;-0.87;80.22;99359.46;104500;1277;61139;-30
2022/03/02 08:35:15;;;;;;;15.40;7.90;;;;;;;-0.73;79.78;99356.48;104405;1277;73231;-30
2022/03/02 08:37:49;;;;;;;13.10;8.70;;;;;;;-0.80;80.08;99349.86;104582;1277;76353;-30
2022/03/02 08:40:50;;;;;;;17.40;9.60;;;;;;;-1.10;81.05;99344.41;104566;1277;72886;-30
2022/03/02 08:43:25;;;;;;;16.40;7.50;;;;;;;-1.05;81.40;99343.77;104818;1277;61407;-30
2022/03/02 08:46:07;;;;;;;11.60;7.20;;;;;;;-0.91;80.92;99342.34;104572;1277;61138;-30
2022/03/02 08:48:46;;;;;;;15.50;8.00;;;;;;;-0.69;79.68;99337.41;104545;1277;73402;-29
2022/03/02 08:51:25;;;;;;;15.80;10.10;;;;;;;-0.47;79.46;99336.09;104583;1277;75090;-30
2022/03/02 08:54:18;;;;;;;;;;;;;;;-0.77;79.85;99327.41;104416;1277;73183;-29
2022/03/02 08:57:05;;;;;;;19.10;11.10;;;;;;;-0.99;80.99;99327.94;104582;1277;61025;-29
2022/03/02 09:03:23;;;;;;;21.80;10.10;;;;;;;-0.30;79.15;99316.10;104552;1277;73097;-29
2022/03/02 09:06:25;;;;;;;15.30;8.20;;;;;;;-0.44;79.61;99311.92;104396;1277;76093;-29
2022/03/02 09:09:47;;;;;;;15.60;9.00;;;;;;;-0.96;80.26;99307.73;104523;1277;73160;-29
2022/03/02 09:15:57;;;;;;;15.60;8.20;;;;;;;-0.60;80.28;99304.06;104249;1277;61160;-29
2022/03/02 09:19:21;;;;;;;20.50;9.80;;;;;;;-0.65;79.58;99304.05;104546;1277;72799;-29
2022/03/02 09:26:17;;;;;;;20.70;10.60;;;;;;;-0.94;80.96;99303.60;104605;1277;75491;-29
2022/03/02 09:29:05;;;;;;;20.40;9.90;;;;;;;-0.92;81.51;99304.20;104669;1274;61259;-30
2022/03/02 09:31:53;;;;;;;28.60;13.60;;;;;;;-0.66;80.40;99296.90;104324;1276;61187;-30
2022/03/02 09:34:45;;;;;;;48.60;21.20;;;;;;;-0.55;79.13;99295.38;104450;1278;73778;-30
2022/03/02 09:37:29;;;;;;;18.80;9.50;;;;;;;-0.19;78.07;99290.30;104360;1277;74479;-29
2022/03/02 09:40:17;;;;;;;23.70;10.50;;;;;;;-0.39;78.82;99279.20;104260;1277;73621;-30
2022/03/02 09:42:58;;;;;;;20.30;11.60;;;;;;;-0.68;79.84;99274.66;104250;1276;61016;-29
2022/03/02 09:46:06;;;;;;;12.00;7.30;;;;;;;-0.78;80.44;99275.45;104524;1277;61227;-30
2022/03/02 09:49:31;;;;;;;15.40;7.70;;;;;;;-0.08;78.52;99273.05;104823;1275;73840;-30
2022/03/02 09:52:27;;;;;;;16.80;8.80;;;;;;;0.04;77.67;99271.80;104710;1274;74608;-29
2022/03/02 09:58:39;;;;;;;29.40;13.70;;;;;;;-0.55;79.68;99261.11;104711;1276;61246;-28
2022/03/02 10:01:41;;;;;;;59.30;20.50;;;;;;;-0.38;79.77;99259.86;104463;1276;61262;-30
2022/03/02 10:04:28;;;;;;;23.60;11.50;;;;;;;-0.34;79.57;99260.59;104721;1272;75360;-30
2022/03/02 10:07:28;;;;;;;27.70;10.90;;;;;;;0.04;78.45;99255.20;104795;1274;75831;-31
2022/03/02 10:10:24;;;;;;;21.50;10.30;;;;;;;-0.14;78.49;99245.26;104727;1274;71539;-29
2022/03/02 10:13:05;;;;;;;27.10;11.30;;;;;;;0.02;79.03;99247.45;104744;1274;61166;-29
2022/03/02 10:16:22;;;;;;;34.30;15.40;;;;;;;-0.02;78.47;99246.02;104953;1271;61173;-30
2022/03/02 10:19:16;;;;;;;26.40;12.10;;;;;;;-0.31;79.54;99236.43;104728;1271;74064;-29
2022/03/02 10:22:55;;;;;;;24.60;11.40;;;;;;;-0.40;79.70;99234.88;104658;1271;77534;-32
2022/03/02 10:26:08;;;;;;;20.80;11.10;;;;;;;0.13;77.95;99233.90;104660;1274;73506;-32
2022/03/02 10:28:58;;;;;;;17.90;8.20;;;;;;;0.62;77.65;99230.09;104839;1271;61330;-29
2022/03/02 10:31:58;;;;;;;40.20;16.20;;;;;;;0.34;77.26;99228.71;104767;1272;61060;-29
2022/03/02 10:34:43;;;;;;;18.50;8.90;;;;;;;0.01;78.46;99219.98;104746;1274;74543;-30
2022/03/02 10:37:55;;;;;;;27.70;13.20;;;;;;;-0.31;79.16;99211.00;104682;1274;74641;-31
2022/03/02 10:40:37;;;;;;;28.00;13.60;;;;;;;-0.14;78.40;99211.46;104979;1274;74218;-32
2022/03/02 10:43:12;;;;;;;17.10;9.30;;;;;;;0.30;77.48;99207.52;104871;1274;62273;-32
2022/03/02 10:45:58;;;;;;;15.40;9.80;;;;;;;-0.02;78.01;99206.62;104840;1274;61149;-29
2022/03/02 10:48:53;;;;;;;13.90;7.70;;;;;;;0.11;78.11;99206.34;105130;1274;75710;-29
2022/03/02 10:51:34;;;;;;;18.00;9.60;;;;;;;0.01;79.60;99202.59;104914;1274;74262;-29
2022/03/02 10:54:22;;;;;;;13.90;6.70;;;;;;;-0.18;80.47;99200.00;104741;1274;71449;-29
2022/03/02 10:57:03;;;;;;;16.50;7.10;;;;;;;0.14;78.60;99193.92;104822;1274;61125;-30
2022/03/02 10:59:43;;;;;;;16.20;7.20;;;;;;;0.46;78.31;99191.73;104914;1274;61133;-31
2022/03/02 11:02:28;;;;;;;9.00;4.90;;;;;;;0.23;78.08;99186.10;104683;1274;74128;-31
2022/03/02 11:04:59;;;;;;;17.50;7.90;;;;;;;-0.07;79.22;99183.73;104744;1274;75880;-31
2022/03/02 11:07:35;;;;;;;16.70;8.50;;;;;;;-0.20;79.81;99181.30;104709;1274;71746;-31
2022/03/02 11:10:33;;;;;;;14.50;7.70;;;;;;;-0.31;81.01;99171.77;104877;1274;61275;-29
2022/03/02 11:13:12;;;;;;;12.40;6.90;;;;;;;0.13;79.36;99172.27;104738;1274;61080;-29
2022/03/02 11:15:51;;;;;;;13.30;7.40;;;;;;;0.30;78.08;99166.02;105138;1273;74333;-29
2022/03/02 11:18:41;;;;;;;18.80;8.00;;;;;;;0.31;78.08;99163.77;105045;1274;74536;-29
2022/03/02 11:21:42;;;;;;;12.00;7.00;;;;;;;0.15;79.01;99164.02;105085;1274;73191;-29
2022/03/02 11:24:17;;;;;;;18.00;8.40;;;;;;;-0.02;80.14;99165.29;105120;1274;61118;-30
2022/03/02 11:27:04;;;;;;;16.30;9.20;;;;;;;0.02;80.06;99160.88;104804;1274;62101;-31
2022/03/02 11:30:07;;;;;;;13.00;6.60;;;;;;;0.18;78.27;99151.63;104914;1273;74104;-29
2022/03/02 11:33:14;;;;;;;15.30;7.60;;;;;;;0.35;77.96;99151.81;105087;1274;74625;-29
2022/03/02 11:36:07;;;;;;;16.00;9.50;;;;;;;0.15;78.75;99145.74;104941;1274;73422;-29
2022/03/02 11:38:57;;;;;;;14.30;8.30;;;;;;;-0.08;79.12;99140.75;105080;1274;61280;-30
2022/03/02 11:42:43;;;;;;;17.10;8.70;;;;;;;-0.11;79.72;99134.56;104894;1274;61401;-29
2022/03/02 11:45:28;;;;;;;8.40;6.30;;;;;;;0.39;78.47;99141.60;105101;1274;74429;-29
2022/03/02 11:48:08;;;;;;;16.80;8.50;;;;;;;0.42;77.89;99133.30;104779;1274;74937;-29
2022/03/02 11:50:59;;;;;;;15.90;9.30;;;;;;;0.25;78.08;99133.57;104913;1274;74390;-30
2022/03/02 11:53:35;;;;;;;13.20;6.50;;;;;;;0.13;78.79;99129.76;104813;1274;61159;-30
2022/03/02 11:56:09;;;;;;;16.10;8.80;;;;;;;-0.11;80.03;99127.75;105135;1274;62042;-29
2022/03/02 11:59:09;;;;;;;14.50;8.00;;;;;;;-0.33;80.94;99134.31;104991;1274;75667;-31
2022/03/02 12:01:54;;;;;;;13.30;7.50;;;;;;;-0.02;79.62;99127.23;104723;1274;75241;-28
2022/03/02 12:04:36;;;;;;;15.10;8.50;;;;;;;-0.14;80.07;99123.24;104717;1274;71458;-28
2022/03/02 12:07:48;;;;;;;12.80;7.20;;;;;;;-0.35;80.99;99121.06;104622;1274;61120;-27
2022/03/02 12:10:32;;;;;;;13.80;8.50;;;;;;;-0.39;82.03;99120.88;105074;1274;62260;-27
2022/03/02 12:13:09;;;;;;;10.60;7.40;;;;;;;-0.55;82.48;99119.39;104815;1273;75531;-28
2022/03/02 12:16:13;;;;;;;16.70;9.40;;;;;;;-0.23;81.47;99117.05;104633;1274;74895;-26
2022/03/02 12:19:23;;;;;;;20.10;10.80;;;;;;;-0.14;81.39;99117.45;104544;1274;74345;-27
2022/03/02 12:22:06;;;;;;;21.70;11.90;;;;;;;-0.10;81.73;99119.86;104836;1274;61194;-28
2022/03/02 12:25:05;;;;;;;;;;;;;;;-0.19;82.38;99125.78;104954;1274;61039;-28
2022/03/02 12:28:05;;;;;;;14.00;7.20;;;;;;;-0.14;82.84;99119.65;104736;1275;75300;-27
2022/03/02 12:30:41;;;;;;;13.60;6.50;;;;;;;0.28;79.48;99113.66;105134;1271;76191;-28
2022/03/02 12:33:19;;;;;;;12.10;7.30;;;;;;;0.16;79.85;99112.91;104911;1271;73048;-28
2022/03/02 12:36:16;;;;;;;12.40;7.20;;;;;;;0.15;79.65;99107.31;104933;1272;61427;-28
2022/03/02 12:38:45;;;;;;;11.80;7.50;;;;;;;-0.14;80.80;99101.58;105002;1274;61408;-28
2022/03/02 12:41:14;;;;;;;11.90;7.20;;;;;;;-0.29;81.33;99098.50;104946;1274;74101;-28
2022/03/02 12:43:51;;;;;;;13.80;6.80;;;;;;;-0.30;82.04;99098.05;104741;1274;74945;-27
2022/03/02 12:46:21;;;;;;;19.50;10.00;;;;;;;0.08;80.68;99096.31;104961;1271;71313;-27
2022/03/02 12:49:25;;;;;;;;;;;;;;;;;;;;;
2022/03/02 12:52:11;;;;;;;19.90;10.90;;;;;;;0.20;79.56;99093.46;104829;1274;62546;-27
2022/03/02 12:55:05;;;;;;;21.50;10.20;;;;;;;0.04;80.13;99090.99;104941;1274;75785;-28
2022/03/02 12:57:35;;;;;;;19.90;8.80;;;;;;;-0.11;81.36;99094.64;104957;1274;76122;-28
2022/03/02 13:00:25;;;;;;;11.60;6.80;;;;;;;-0.18;81.39;99088.73;104797;1274;73570;-28
2022/03/02 13:03:07;;;;;;;17.90;9.60;;;;;;;0.39;79.85;99088.83;104790;1274;61163;-28
2022/03/02 13:05:48;;;;;;;18.80;8.70;;;;;;;0.37;79.50;99081.74;104711;1274;61848;-28
2022/03/02 13:08:37;;;;;;;20.70;10.30;;;;;;;0.23;80.25;99081.06;104763;1274;74510;-28
2022/03/02 13:11:32;;;;;;;17.00;9.50;;;;;;;0.01;81.10;99080.02;105056;1274;74467;-29
2022/03/02 13:14:35;;;;;;;18.90;9.70;;;;;;;-0.23;82.03;99074.25;104872;1274;73293;-29
2022/03/02 13:17:17;;;;;;;27.90;12.00;;;;;;;0.17;81.29;99072.73;104816;1275;61150;-28
2022/03/02 13:20:36;;;;;;;28.40;13.80;;;;;;;0.60;79.71;99073.98;104975;1274;61124;-28
2022/03/02 13:23:13;;;;;;;22.60;12.30;;;;;;;0.11;80.88;99065.48;104767;1273;74625;-28
2022/03/02 13:26:12;;;;;;;21.90;11.90;;;;;;;-0.18;82.30;99061.61;104630;1274;75986;-28